Time;durP1;ratioP1;P1;durP2;ratioP2;P2;SDS_P1;SDS_P2;PMS_P1;PMS_P2;Temp;Humidity;BMP_temperature;BMP_pressure;BME280_temperature;BME280_humidity;BME280_pressure;Samples;Min_cycle;Max_cycle;Signal;HPM_P1;HPM_P2
2022/01/29 00:02:22;;;;;;;2.80;1.40;;;;;;;;;;5024427;28;20493;-52
2022/01/29 00:04:47;;;;;;;2.50;1.43;;;;;;;;;;5024423;28;21106;-52
2022/01/29 00:07:13;;;;;;;2.80;1.70;;;;;;;;;;5024244;28;20513;-52
2022/01/29 00:09:38;;;;;;;2.30;1.55;;;;;;;;;;5024474;28;20662;-51
2022/01/29 00:12:04;;;;;;;2.25;1.33;;;;;;;;;;5024281;28;20025;-52
2022/01/29 00:14:29;;;;;;;2.22;1.45;;;;;;;;;;5038734;28;20486;-51
2022/01/29 00:16:54;;;;;;;2.75;1.50;;;;;;;;;;5043919;28;20044;-51
2022/01/29 00:19:19;;;;;;;2.60;1.57;;;;;;;;;;5044415;28;20047;-51
2022/01/29 00:21:45;;;;;;;2.40;1.57;;;;;;;;;;5044514;28;20270;-51
2022/01/29 00:24:10;;;;;;;2.35;1.38;;;;;;;;;;5032098;28;20315;-51
2022/01/29 00:26:35;;;;;;;2.57;1.40;;;;;;;;;;5024118;28;20029;-52
2022/01/29 00:29:08;;;;;;;2.50;1.50;;;;;;;;;;5023953;28;20355;-51
2022/01/29 00:31:33;;;;;;;2.45;1.30;;;;;;;;;;5023922;28;20264;-51
2022/01/29 00:33:58;;;;;;;3.07;1.47;;;;;;;;;;5023825;28;20434;-51
2022/01/29 00:36:23;;;;;;;2.80;1.30;;;;;;;;;;5023552;28;20628;-52
2022/01/29 00:38:48;;;;;;;2.37;1.40;;;;;;;;;;5024421;28;20394;-52
2022/01/29 00:41:14;;;;;;;2.13;1.30;;;;;;;;;;5024237;28;20503;-52
2022/01/29 00:43:39;;;;;;;2.37;1.30;;;;;;;;;;5023803;28;20650;-50
2022/01/29 00:46:04;;;;;;;2.30;1.20;;;;;;;;;;5023687;28;20670;-53
2022/01/29 00:48:29;;;;;;;1.77;1.07;;;;;;;;;;5023387;28;20760;-52
2022/01/29 00:50:57;;;;;;;2.55;1.60;;;;;;;;;;5023221;28;20467;-52
2022/01/29 00:53:22;;;;;;;2.50;1.50;;;;;;;;;;5023499;28;20329;-52
2022/01/29 00:55:48;;;;;;;1.80;1.20;;;;;;;;;;5023361;28;20069;-52
2022/01/29 00:58:13;;;;;;;2.13;1.40;;;;;;;;;;5023481;28;20268;-52
2022/01/29 01:00:38;;;;;;;1.70;1.10;;;;;;;;;;5023475;28;20023;-52
2022/01/29 01:03:04;;;;;;;2.42;1.40;;;;;;;;;;5039420;28;20099;-52
2022/01/29 01:05:29;;;;;;;2.08;1.25;;;;;;;;;;5022836;28;20045;-52
2022/01/29 01:07:54;;;;;;;1.90;1.20;;;;;;;;;;5022290;28;20060;-51
2022/01/29 01:10:19;;;;;;;2.27;1.40;;;;;;;;;;5035954;28;20310;-51
2022/01/29 01:12:44;;;;;;;1.90;1.13;;;;;;;;;;5042888;28;20287;-52
2022/01/29 01:15:10;;;;;;;1.87;1.30;;;;;;;;;;5042891;28;20282;-52
2022/01/29 01:17:35;;;;;;;2.47;1.10;;;;;;;;;;5038023;28;20722;-51
2022/01/29 01:20:00;;;;;;;1.97;1.20;;;;;;;;;;5028881;28;20835;-52
2022/01/29 01:22:25;;;;;;;2.00;1.20;;;;;;;;;;5024123;28;20779;-51
2022/01/29 01:24:50;;;;;;;1.80;1.20;;;;;;;;;;5023179;28;20264;-51
2022/01/29 01:27:16;;;;;;;2.07;1.20;;;;;;;;;;5023346;28;20295;-52
2022/01/29 01:29:41;;;;;;;3.30;1.55;;;;;;;;;;5023396;28;20291;-52
2022/01/29 01:32:11;;;;;;;2.08;1.40;;;;;;;;;;5023543;28;20388;-50
2022/01/29 01:34:39;;;;;;;3.03;1.70;;;;;;;;;;5025937;28;20060;-52
2022/01/29 01:37:09;;;;;;;2.53;1.40;;;;;;;;;;5023722;28;20516;-52
2022/01/29 01:39:37;;;;;;;2.65;1.45;;;;;;;;;;5026191;28;20087;-51
2022/01/29 01:42:06;;;;;;;2.38;1.48;;;;;;;;;;5027259;28;20045;-52
2022/01/29 01:44:43;;;;;;;1.98;1.20;;;;;;;;;;5025055;28;20037;-52
2022/01/29 01:47:08;;;;;;;2.00;1.30;;;;;;;;;;5024370;28;20041;-52
2022/01/29 01:49:34;;;;;;;2.03;1.33;;;;;;;;;;5029459;28;20028;-51
2022/01/29 01:51:59;;;;;;;2.22;1.30;;;;;;;;;;5042493;28;20021;-52
2022/01/29 01:54:24;;;;;;;3.13;1.87;;;;;;;;;;5042662;28;20023;-51
2022/01/29 01:56:50;;;;;;;1.87;1.10;;;;;;;;;;5042434;28;20280;-51
2022/01/29 01:59:15;;;;;;;1.97;1.40;;;;;;;;;;5042496;28;20347;-52
2022/01/29 02:01:40;;;;;;;2.55;1.40;;;;;;;;;;5042450;28;20619;-51
2022/01/29 02:04:05;;;;;;;2.23;1.30;;;;;;;;;;5031861;28;20033;-52
2022/01/29 02:06:31;;;;;;;2.70;1.30;;;;;;;;;;5020924;28;20900;-51
2022/01/29 02:08:59;;;;;;;2.03;1.10;;;;;;;;;;5022134;28;20104;-52
2022/01/29 02:11:25;;;;;;;1.70;1.15;;;;;;;;;;5022179;28;20021;-51
2022/01/29 02:13:50;;;;;;;2.20;1.13;;;;;;;;;;5021961;28;20514;-52
2022/01/29 02:16:16;;;;;;;1.73;0.95;;;;;;;;;;5022074;28;20021;-53
2022/01/29 02:18:41;;;;;;;2.28;1.40;;;;;;;;;;5022084;28;20025;-54
2022/01/29 02:21:06;;;;;;;1.83;1.03;;;;;;;;;;5022147;28;20026;-53
2022/01/29 02:23:31;;;;;;;1.85;1.10;;;;;;;;;;5022091;28;20083;-53
2022/01/29 02:25:57;;;;;;;2.97;1.30;;;;;;;;;;5022162;28;20483;-52
2022/01/29 02:28:22;;;;;;;2.05;1.05;;;;;;;;;;5021779;28;20041;-52
2022/01/29 02:30:48;;;;;;;2.58;1.20;;;;;;;;;;5022026;28;20503;-52
2022/01/29 02:33:15;;;;;;;2.45;1.30;;;;;;;;;;5021566;28;20057;-52
2022/01/29 02:35:41;;;;;;;1.63;1.08;;;;;;;;;;5021866;28;20428;-52
2022/01/29 02:38:07;;;;;;;1.80;1.00;;;;;;;;;;5022195;28;20032;-52
2022/01/29 02:40:42;;;;;;;2.25;1.58;;;;;;;;;;5020449;28;20025;-51
2022/01/29 02:43:14;;;;;;;2.03;1.00;;;;;;;;;;5021596;28;20034;-52
2022/01/29 02:45:41;;;;;;;2.15;1.20;;;;;;;;;;5021894;28;20025;-51
2022/01/29 02:48:06;;;;;;;1.70;1.02;;;;;;;;;;5021665;28;20399;-51
2022/01/29 02:50:32;;;;;;;1.87;1.10;;;;;;;;;;5020431;28;20418;-51
2022/01/29 02:52:57;;;;;;;2.03;1.20;;;;;;;;;;5021296;28;20322;-52
2022/01/29 02:55:24;;;;;;;2.10;1.20;;;;;;;;;;5021552;28;20280;-51
2022/01/29 02:57:49;;;;;;;2.08;1.13;;;;;;;;;;5021524;28;20279;-50
2022/01/29 03:00:14;;;;;;;2.23;1.07;;;;;;;;;;5021656;28;20446;-51
2022/01/29 03:02:39;;;;;;;1.95;1.10;;;;;;;;;;5021488;28;20506;-51
2022/01/29 03:05:05;;;;;;;1.97;1.03;;;;;;;;;;5020946;28;20082;-52
2022/01/29 03:07:30;;;;;;;1.92;1.00;;;;;;;;;;5021694;28;20124;-51
2022/01/29 03:09:55;;;;;;;2.50;1.25;;;;;;;;;;5021571;28;20017;-51
2022/01/29 03:12:21;;;;;;;2.30;1.27;;;;;;;;;;5021277;28;20108;-51
2022/01/29 03:14:46;;;;;;;1.63;1.00;;;;;;;;;;5021535;28;20303;-52
2022/01/29 03:17:11;;;;;;;2.20;1.27;;;;;;;;;;5021050;28;20268;-51
2022/01/29 03:19:36;;;;;;;2.50;1.00;;;;;;;;;;5021556;28;20029;-51
2022/01/29 03:22:02;;;;;;;1.73;1.03;;;;;;;;;;5021727;28;20837;-51
2022/01/29 03:24:27;;;;;;;3.38;1.60;;;;;;;;;;5021324;28;20885;-51
2022/01/29 03:26:52;;;;;;;1.77;1.00;;;;;;;;;;5021273;28;20610;-52
2022/01/29 03:29:17;;;;;;;2.00;1.20;;;;;;;;;;5021302;28;20279;-52
2022/01/29 03:31:42;;;;;;;1.63;0.97;;;;;;;;;;5024279;28;20322;-50
2022/01/29 03:34:08;;;;;;;2.00;1.20;;;;;;;;;;5024821;28;20770;-51
2022/01/29 03:36:33;;;;;;;1.80;1.00;;;;;;;;;;5024935;28;20278;-51
2022/01/29 03:38:58;;;;;;;1.90;0.90;;;;;;;;;;5042215;28;20271;-51
2022/01/29 03:41:24;;;;;;;1.40;0.90;;;;;;;;;;5040298;28;20287;-51
2022/01/29 03:43:51;;;;;;;1.90;1.15;;;;;;;;;;5024524;28;20087;-51
2022/01/29 03:46:17;;;;;;;1.33;0.82;;;;;;;;;;5024743;28;20034;-51
2022/01/29 03:48:42;;;;;;;1.98;1.05;;;;;;;;;;5024751;28;20033;-51
2022/01/29 03:51:07;;;;;;;2.40;1.30;;;;;;;;;;5024396;28;20515;-51
2022/01/29 03:53:32;;;;;;;2.03;1.23;;;;;;;;;;5024423;28;20311;-50
2022/01/29 03:55:58;;;;;;;2.37;1.33;;;;;;;;;;5024351;28;20264;-52
2022/01/29 03:58:23;;;;;;;2.50;1.33;;;;;;;;;;5024890;28;20276;-50
2022/01/29 04:00:48;;;;;;;2.03;1.20;;;;;;;;;;5040722;28;20549;-50
2022/01/29 04:03:13;;;;;;;1.57;1.07;;;;;;;;;;5041083;28;20279;-50
2022/01/29 04:05:38;;;;;;;1.80;1.07;;;;;;;;;;5024117;28;20296;-51
2022/01/29 04:08:07;;;;;;;1.93;1.00;;;;;;;;;;5024259;28;20813;-50
2022/01/29 04:10:32;;;;;;;1.95;1.15;;;;;;;;;;5024132;28;20416;-51
2022/01/29 04:12:58;;;;;;;1.55;0.95;;;;;;;;;;5023760;28;20025;-51
2022/01/29 04:15:23;;;;;;;4.05;1.02;;;;;;;;;;5023941;28;20017;-50
2022/01/29 04:17:48;;;;;;;1.80;1.10;;;;;;;;;;5023904;28;20017;-50
2022/01/29 04:20:13;;;;;;;2.23;1.20;;;;;;;;;;5023845;28;20264;-51
2022/01/29 04:22:39;;;;;;;1.67;1.05;;;;;;;;;;5023932;28;20271;-50
2022/01/29 04:25:04;;;;;;;2.00;0.93;;;;;;;;;;5023661;28;20108;-50
2022/01/29 04:27:37;;;;;;;2.25;1.30;;;;;;;;;;5023794;28;20623;-48
2022/01/29 04:30:08;;;;;;;2.08;1.25;;;;;;;;;;5023693;28;20036;-50
2022/01/29 04:35:14;;;;;;;1.35;0.88;;;;;;;;;;5023664;28;20223;-50
2022/01/29 04:37:39;;;;;;;1.80;1.10;;;;;;;;;;5023845;28;20322;-51
2022/01/29 04:40:05;;;;;;;2.00;1.20;;;;;;;;;;5022228;28;20021;-51
2022/01/29 04:42:30;;;;;;;1.95;1.10;;;;;;;;;;5023536;28;20017;-52
2022/01/29 04:44:55;;;;;;;2.27;1.20;;;;;;;;;;5023490;28;20029;-50
2022/01/29 04:47:20;;;;;;;2.00;1.13;;;;;;;;;;5023532;28;20032;-50
2022/01/29 04:49:46;;;;;;;1.40;0.80;;;;;;;;;;5023392;28;20030;-51
2022/01/29 04:52:11;;;;;;;2.40;1.30;;;;;;;;;;5023171;28;20028;-51
2022/01/29 04:54:36;;;;;;;1.83;1.03;;;;;;;;;;5023204;28;20272;-51
2022/01/29 04:57:01;;;;;;;2.07;1.00;;;;;;;;;;5023103;28;20308;-51
2022/01/29 04:59:27;;;;;;;2.15;1.13;;;;;;;;;;5023130;28;20049;-51
2022/01/29 05:01:52;;;;;;;2.00;1.08;;;;;;;;;;5023364;28;20024;-51
2022/01/29 05:04:18;;;;;;;2.07;1.00;;;;;;;;;;5023211;28;20531;-50
2022/01/29 05:06:43;;;;;;;1.75;0.90;;;;;;;;;;5022796;28;20521;-50
2022/01/29 05:09:09;;;;;;;1.80;0.90;;;;;;;;;;5021841;28;20029;-51
2022/01/29 05:11:35;;;;;;;2.00;0.88;;;;;;;;;;5023992;28;20689;-50
2022/01/29 05:14:02;;;;;;;2.08;1.13;;;;;;;;;;5022627;28;20029;-50
2022/01/29 05:27:23;;;;;;;2.13;1.23;;;;;;;;;;5022741;28;20036;-50
2022/01/29 05:29:48;;;;;;;2.30;1.20;;;;;;;;;;5022827;28;20389;-51
2022/01/29 05:32:15;;;;;;;1.50;0.90;;;;;;;;;;5022449;28;20096;-51
2022/01/29 05:34:40;;;;;;;1.40;1.15;;;;;;;;;;5022775;28;20045;-51
2022/01/29 05:37:05;;;;;;;2.22;1.20;;;;;;;;;;5022551;28;20068;-51
2022/01/29 05:39:31;;;;;;;1.58;0.88;;;;;;;;;;5022619;28;20515;-51
2022/01/29 05:41:58;;;;;;;2.08;0.68;;;;;;;;;;5022336;28;20024;-51
2022/01/29 05:44:23;;;;;;;1.90;1.00;;;;;;;;;;5022286;28;20401;-51
2022/01/29 05:46:49;;;;;;;1.80;1.00;;;;;;;;;;5022400;28;20040;-52
2022/01/29 05:49:14;;;;;;;1.20;0.80;;;;;;;;;;5022330;28;20514;-51
2022/01/29 05:51:39;;;;;;;2.05;0.90;;;;;;;;;;5020711;28;20507;-51
2022/01/29 05:54:04;;;;;;;1.93;0.90;;;;;;;;;;5021848;28;20041;-50
2022/01/29 05:56:29;;;;;;;1.83;0.77;;;;;;;;;;5022384;28;20268;-51
2022/01/29 05:58:55;;;;;;;2.60;1.20;;;;;;;;;;5022198;28;20021;-51
2022/01/29 06:01:20;;;;;;;2.13;1.20;;;;;;;;;;5022002;28;20269;-51
2022/01/29 06:03:45;;;;;;;1.50;0.90;;;;;;;;;;5022191;28;20028;-51
2022/01/29 06:06:11;;;;;;;1.57;0.97;;;;;;;;;;5022139;28;20284;-51
2022/01/29 06:08:36;;;;;;;2.00;1.10;;;;;;;;;;5022357;28;20040;-51
2022/01/29 06:11:01;;;;;;;1.90;1.10;;;;;;;;;;5021792;28;20268;-51
2022/01/29 06:13:26;;;;;;;2.33;1.00;;;;;;;;;;5021865;28;20351;-51
2022/01/29 06:15:52;;;;;;;1.60;0.98;;;;;;;;;;5022107;28;20268;-51
2022/01/29 06:18:19;;;;;;;1.35;0.90;;;;;;;;;;5022182;28;20033;-50
2022/01/29 06:20:48;;;;;;;1.98;1.10;;;;;;;;;;5022091;28;20029;-52
2022/01/29 06:23:14;;;;;;;1.73;1.00;;;;;;;;;;5021561;28;20519;-51
2022/01/29 06:25:39;;;;;;;2.13;1.20;;;;;;;;;;5022121;28;20026;-50
2022/01/29 06:28:04;;;;;;;1.43;1.00;;;;;;;;;;5021586;28;20040;-52
2022/01/29 06:30:30;;;;;;;1.57;0.97;;;;;;;;;;5021882;28;20264;-52
2022/01/29 06:32:55;;;;;;;1.60;1.00;;;;;;;;;;5021895;28;20274;-52
2022/01/29 06:35:20;;;;;;;1.50;0.87;;;;;;;;;;5022109;28;20050;-52
2022/01/29 06:37:46;;;;;;;1.80;0.90;;;;;;;;;;5022749;28;20949;-52
2022/01/29 06:40:11;;;;;;;2.20;1.20;;;;;;;;;;5022907;28;20507;-52
2022/01/29 06:42:36;;;;;;;1.42;0.80;;;;;;;;;;5022009;28;20440;-52
2022/01/29 06:45:02;;;;;;;1.53;1.07;;;;;;;;;;5021826;28;20392;-52
2022/01/29 06:47:27;;;;;;;1.17;0.80;;;;;;;;;;5021839;28;20288;-50
2022/01/29 06:49:53;;;;;;;1.40;0.80;;;;;;;;;;5022075;28;20010;-53
2022/01/29 06:52:18;;;;;;;1.65;1.13;;;;;;;;;;5021708;28;20304;-52
2022/01/29 06:54:43;;;;;;;1.67;1.00;;;;;;;;;;5022031;28;20067;-52
2022/01/29 06:57:08;;;;;;;1.67;0.97;;;;;;;;;;5021551;28;20847;-51
2022/01/29 06:59:34;;;;;;;1.40;0.90;;;;;;;;;;5021650;28;20487;-51
2022/01/29 07:01:59;;;;;;;1.77;1.10;;;;;;;;;;5022085;28;20681;-51
2022/01/29 07:04:24;;;;;;;2.13;1.13;;;;;;;;;;5018856;28;20307;-52
2022/01/29 07:06:49;;;;;;;1.60;1.00;;;;;;;;;;5006553;28;20600;-51
2022/01/29 07:09:14;;;;;;;1.60;1.20;;;;;;;;;;5006615;28;20308;-50
2022/01/29 07:11:43;;;;;;;1.40;0.90;;;;;;;;;;5007109;28;20109;-50
2022/01/29 07:14:08;;;;;;;2.80;1.30;;;;;;;;;;5007478;28;20029;-54
2022/01/29 07:16:34;;;;;;;1.67;1.00;;;;;;;;;;5005578;28;20938;-49
2022/01/29 07:18:59;;;;;;;1.60;1.10;;;;;;;;;;5006645;28;20040;-51
2022/01/29 07:21:25;;;;;;;1.38;1.00;;;;;;;;;;5005229;28;20480;-51
2022/01/29 07:23:50;;;;;;;1.40;1.00;;;;;;;;;;5004874;28;20026;-52
2022/01/29 07:26:15;;;;;;;1.87;1.17;;;;;;;;;;5004795;28;20056;-51
2022/01/29 07:28:40;;;;;;;1.93;1.10;;;;;;;;;;5007716;28;20037;-51
2022/01/29 07:31:06;;;;;;;1.80;1.10;;;;;;;;;;5004958;28;20268;-51
2022/01/29 07:33:31;;;;;;;1.80;0.95;;;;;;;;;;5004470;28;20026;-51
2022/01/29 07:35:56;;;;;;;1.60;1.10;;;;;;;;;;5007168;28;20455;-51
2022/01/29 07:38:21;;;;;;;2.40;1.08;;;;;;;;;;5006580;28;20472;-52
2022/01/29 07:40:47;;;;;;;2.30;1.00;;;;;;;;;;5019424;28;20108;-52
2022/01/29 07:43:12;;;;;;;1.70;1.20;;;;;;;;;;5009648;28;20145;-52
2022/01/29 07:45:37;;;;;;;2.00;1.17;;;;;;;;;;5025703;28;20286;-51
2022/01/29 07:48:02;;;;;;;2.30;1.10;;;;;;;;;;5034551;28;20037;-52
2022/01/29 07:50:28;;;;;;;2.05;1.40;;;;;;;;;;5040465;28;20038;-53
2022/01/29 07:52:54;;;;;;;2.33;1.20;;;;;;;;;;5032905;28;20026;-53
2022/01/29 07:55:19;;;;;;;1.75;1.00;;;;;;;;;;5000271;28;20295;-53
2022/01/29 07:57:45;;;;;;;1.45;1.02;;;;;;;;;;5004884;28;20412;-53
2022/01/29 08:00:10;;;;;;;2.77;1.20;;;;;;;;;;5004597;28;20528;-53
2022/01/29 08:02:36;;;;;;;1.27;0.98;;;;;;;;;;5003446;28;20515;-53
2022/01/29 08:05:01;;;;;;;1.57;1.00;;;;;;;;;;5003384;28;20491;-52
2022/01/29 08:07:26;;;;;;;1.20;1.00;;;;;;;;;;5006627;28;20418;-53
2022/01/29 08:09:51;;;;;;;1.63;1.17;;;;;;;;;;5004770;28;20033;-52
2022/01/29 08:12:16;;;;;;;1.40;1.17;;;;;;;;;;5003877;28;20104;-52
2022/01/29 08:14:42;;;;;;;2.20;1.20;;;;;;;;;;5003213;28;20114;-53
2022/01/29 08:17:07;;;;;;;1.30;0.90;;;;;;;;;;5003482;28;20276;-52
2022/01/29 08:19:33;;;;;;;1.92;1.00;;;;;;;;;;5003512;28;20265;-54
2022/01/29 08:21:58;;;;;;;1.43;1.10;;;;;;;;;;5003575;28;20033;-53
2022/01/29 08:24:23;;;;;;;1.60;1.20;;;;;;;;;;5003368;28;20010;-53
2022/01/29 08:26:48;;;;;;;1.47;1.00;;;;;;;;;;5003447;28;20296;-52
2022/01/29 08:29:14;;;;;;;2.67;1.10;;;;;;;;;;5003197;28;20060;-52
2022/01/29 08:31:39;;;;;;;1.90;1.30;;;;;;;;;;5003525;28;20022;-51
2022/01/29 08:34:05;;;;;;;2.17;1.03;;;;;;;;;;5003363;28;20121;-53
2022/01/29 08:36:30;;;;;;;2.75;1.20;;;;;;;;;;5003495;28;20801;-52
2022/01/29 08:38:55;;;;;;;2.20;1.67;;;;;;;;;;5002992;28;20018;-52
2022/01/29 08:41:20;;;;;;;2.27;1.17;;;;;;;;;;5003528;28;20293;-52
2022/01/29 08:43:46;;;;;;;2.40;1.50;;;;;;;;;;5003593;28;20056;-52
2022/01/29 08:46:11;;;;;;;1.58;1.15;;;;;;;;;;5003384;28;20114;-53
2022/01/29 08:48:36;;;;;;;2.33;1.40;;;;;;;;;;5003190;28;20503;-55
2022/01/29 08:51:02;;;;;;;2.07;1.30;;;;;;;;;;5003647;28;20271;-51
2022/01/29 08:53:27;;;;;;;3.38;1.38;;;;;;;;;;5002469;28;20356;-51
2022/01/29 08:55:52;;;;;;;2.10;1.13;;;;;;;;;;5003091;28;20378;-52
2022/01/29 08:58:17;;;;;;;2.77;1.30;;;;;;;;;;5003412;28;20359;-52
2022/01/29 09:00:46;;;;;;;2.80;1.40;;;;;;;;;;5004264;28;20856;-51
2022/01/29 09:03:15;;;;;;;2.58;1.52;;;;;;;;;;5003727;28;20049;-53
2022/01/29 09:05:40;;;;;;;1.65;1.20;;;;;;;;;;5003435;28;20108;-51
2022/01/29 09:08:05;;;;;;;1.55;1.30;;;;;;;;;;5003499;28;20527;-57
2022/01/29 09:10:31;;;;;;;2.40;1.27;;;;;;;;;;5003098;28;20543;-51
2022/01/29 09:12:56;;;;;;;2.13;1.40;;;;;;;;;;5003197;28;20096;-50
2022/01/29 09:15:21;;;;;;;1.88;1.30;;;;;;;;;;5002788;28;20022;-54
2022/01/29 09:17:47;;;;;;;1.97;1.20;;;;;;;;;;5002930;28;20038;-54
2022/01/29 09:20:12;;;;;;;1.90;1.20;;;;;;;;;;5012246;28;20091;-52
2022/01/29 09:22:37;;;;;;;1.97;1.10;;;;;;;;;;5022301;28;21131;-52
2022/01/29 09:25:03;;;;;;;2.10;1.30;;;;;;;;;;5006669;28;20400;-52
2022/01/29 09:27:28;;;;;;;3.28;1.40;;;;;;;;;;5002559;28;20041;-52
2022/01/29 09:29:53;;;;;;;2.37;1.23;;;;;;;;;;5002750;28;20072;-51
2022/01/29 09:32:19;;;;;;;1.70;1.20;;;;;;;;;;5002875;28;20273;-52
2022/01/29 09:34:44;;;;;;;2.50;1.40;;;;;;;;;;5002741;28;20080;-52
2022/01/29 09:37:09;;;;;;;2.05;1.42;;;;;;;;;;5002734;28;20313;-54
2022/01/29 09:39:34;;;;;;;3.10;1.30;;;;;;;;;;5002531;28;20022;-51
2022/01/29 09:42:01;;;;;;;2.77;1.90;;;;;;;;;;5002677;28;20423;-53
2022/01/29 09:44:26;;;;;;;2.70;1.60;;;;;;;;;;5001932;28;20892;-53
2022/01/29 09:46:51;;;;;;;2.00;1.30;;;;;;;;;;4999146;28;20033;-53
2022/01/29 09:49:17;;;;;;;2.83;1.65;;;;;;;;;;5000782;28;20380;-52
2022/01/29 09:51:42;;;;;;;2.17;1.67;;;;;;;;;;4993923;28;20116;-50
2022/01/29 09:54:07;;;;;;;2.67;1.40;;;;;;;;;;5001868;28;20488;-51
2022/01/29 09:56:33;;;;;;;2.70;1.33;;;;;;;;;;5001952;28;20448;-51
2022/01/29 09:58:58;;;;;;;2.08;1.50;;;;;;;;;;5001650;28;20904;-51
2022/01/29 10:01:23;;;;;;;2.83;1.40;;;;;;;;;;5001633;28;20044;-52
2022/01/29 10:03:59;;;;;;;2.00;1.50;;;;;;;;;;5002131;28;20022;-50
2022/01/29 10:06:24;;;;;;;2.70;1.60;;;;;;;;;;5001914;28;20067;-53
2022/01/29 10:08:49;;;;;;;1.70;1.20;;;;;;;;;;5002063;28;20057;-52
2022/01/29 10:11:23;;;;;;;2.30;1.30;;;;;;;;;;5002349;28;20032;-52
2022/01/29 10:13:48;;;;;;;3.30;1.50;;;;;;;;;;5001788;28;20515;-51
2022/01/29 10:16:23;;;;;;;2.53;1.23;;;;;;;;;;5002029;28;20053;-50
2022/01/29 10:18:58;;;;;;;2.00;1.50;;;;;;;;;;5001230;28;20018;-51
2022/01/29 10:21:24;;;;;;;2.45;1.33;;;;;;;;;;5001549;28;20851;-51
2022/01/29 10:23:57;;;;;;;2.03;1.30;;;;;;;;;;5001435;28;20026;-52
2022/01/29 10:26:26;;;;;;;2.63;1.58;;;;;;;;;;5001380;28;20542;-52
2022/01/29 10:28:52;;;;;;;2.13;1.30;;;;;;;;;;5000278;28;20044;-52
2022/01/29 10:31:17;;;;;;;2.40;1.52;;;;;;;;;;5001227;28;20018;-53
2022/01/29 10:33:42;;;;;;;2.23;1.40;;;;;;;;;;4999958;28;20048;-53
2022/01/29 10:36:08;;;;;;;2.63;1.30;;;;;;;;;;4992519;28;20743;-51
2022/01/29 10:38:40;;;;;;;2.30;1.48;;;;;;;;;;4996471;28;20049;-52
2022/01/29 10:41:08;;;;;;;2.28;1.40;;;;;;;;;;5005676;28;20030;-52
2022/01/29 10:43:34;;;;;;;2.38;1.65;;;;;;;;;;5005664;28;20022;-52
2022/01/29 10:45:59;;;;;;;2.07;1.50;;;;;;;;;;5005869;28;20030;-53
2022/01/29 10:48:40;;;;;;;2.03;1.50;;;;;;;;;;5005496;28;20303;-53
2022/01/29 10:51:09;;;;;;;2.30;1.30;;;;;;;;;;5006057;28;20113;-52
2022/01/29 10:53:34;;;;;;;2.33;1.30;;;;;;;;;;5005691;28;20184;-52
2022/01/29 10:56:00;;;;;;;2.28;1.55;;;;;;;;;;5005613;28;20100;-52
2022/01/29 10:58:25;;;;;;;2.08;1.42;;;;;;;;;;5005519;28;20036;-52
2022/01/29 11:01:09;;;;;;;2.53;1.50;;;;;;;;;;5005407;28;20057;-52
2022/01/29 11:03:34;;;;;;;2.70;1.50;;;;;;;;;;5005150;28;20025;-51
2022/01/29 11:06:00;;;;;;;2.17;1.30;;;;;;;;;;5005192;28;20434;-52
2022/01/29 11:08:25;;;;;;;2.00;1.40;;;;;;;;;;5005220;28;20403;-53
2022/01/29 11:10:50;;;;;;;1.93;1.40;;;;;;;;;;5004173;28;20026;-51
2022/01/29 11:13:15;;;;;;;1.90;1.33;;;;;;;;;;5003818;28;20022;-51
2022/01/29 11:15:41;;;;;;;2.87;1.40;;;;;;;;;;5005390;28;20376;-52
2022/01/29 11:18:06;;;;;;;2.13;1.30;;;;;;;;;;5005601;28;20037;-52
2022/01/29 11:20:31;;;;;;;1.90;1.30;;;;;;;;;;5003690;28;20092;-53
2022/01/29 11:22:56;;;;;;;2.53;1.40;;;;;;;;;;5005234;28;20038;-52
2022/01/29 11:25:22;;;;;;;2.20;1.60;;;;;;;;;;5003433;28;20072;-52
2022/01/29 11:27:48;;;;;;;1.95;1.33;;;;;;;;;;5004846;28;20309;-52
2022/01/29 11:30:13;;;;;;;2.28;1.48;;;;;;;;;;5005329;28;20029;-52
2022/01/29 11:32:40;;;;;;;2.88;1.52;;;;;;;;;;5004827;28;20625;-52
2022/01/29 11:35:05;;;;;;;2.55;1.30;;;;;;;;;;5005204;28;20037;-51
2022/01/29 11:37:49;;;;;;;2.20;1.30;;;;;;;;;;5004627;28;20029;-52
2022/01/29 11:40:27;;;;;;;2.40;1.50;;;;;;;;;;5004919;28;20052;-52
2022/01/29 11:42:53;;;;;;;2.08;1.42;;;;;;;;;;5004865;28;20051;-52
2022/01/29 11:45:31;;;;;;;1.90;1.50;;;;;;;;;;5004718;28;20018;-51
2022/01/29 11:47:57;;;;;;;2.15;1.67;;;;;;;;;;5004876;28;20071;-51
2022/01/29 11:50:22;;;;;;;2.27;1.63;;;;;;;;;;5004663;28;20420;-52
2022/01/29 11:52:54;;;;;;;2.37;1.50;;;;;;;;;;5003942;28;20310;-54
2022/01/29 11:55:40;;;;;;;2.35;1.60;;;;;;;;;;5004264;28;20473;-54
2022/01/29 11:58:15;;;;;;;2.72;1.45;;;;;;;;;;5005398;28;20030;-54
2022/01/29 12:00:40;;;;;;;2.17;1.60;;;;;;;;;;5004198;28;20446;-51
2022/01/29 12:03:06;;;;;;;2.95;1.35;;;;;;;;;;5000167;28;20046;-52
2022/01/29 12:05:51;;;;;;;2.47;1.38;;;;;;;;;;5003895;28;20042;-54
2022/01/29 12:08:19;;;;;;;2.33;1.65;;;;;;;;;;5003329;28;20134;-53
2022/01/29 12:10:53;;;;;;;2.58;1.60;;;;;;;;;;5003035;28;20037;-50
2022/01/29 12:13:19;;;;;;;2.45;1.48;;;;;;;;;;5004173;28;20107;-53
2022/01/29 12:15:44;;;;;;;2.72;1.80;;;;;;;;;;5004302;28;20022;-53
2022/01/29 12:18:32;;;;;;;1.77;1.53;;;;;;;;;;5003950;28;20902;-53
2022/01/29 12:20:58;;;;;;;2.42;1.70;;;;;;;;;;5004290;28;20268;-52
2022/01/29 12:23:23;;;;;;;3.30;1.77;;;;;;;;;;5003680;28;20076;-53
2022/01/29 12:25:53;;;;;;;2.70;1.53;;;;;;;;;;5003947;28;20072;-50
2022/01/29 12:28:18;;;;;;;2.13;1.40;;;;;;;;;;5004399;28;20312;-53
2022/01/29 12:30:44;;;;;;;2.45;1.48;;;;;;;;;;5004037;28;20030;-52
2022/01/29 12:33:11;;;;;;;3.50;1.63;;;;;;;;;;5004072;28;20038;-52
2022/01/29 12:35:45;;;;;;;1.95;1.50;;;;;;;;;;5003684;28;20028;-52
2022/01/29 12:38:15;;;;;;;2.55;1.60;;;;;;;;;;5003656;28;20080;-52
2022/01/29 12:40:55;;;;;;;2.67;1.80;;;;;;;;;;5003826;28;20026;-52
2022/01/29 12:43:22;;;;;;;2.70;1.70;;;;;;;;;;5000178;28;20061;-52
2022/01/29 12:45:47;;;;;;;2.88;1.63;;;;;;;;;;5002965;28;20379;-52
2022/01/29 12:48:13;;;;;;;2.70;1.65;;;;;;;;;;5011583;28;20045;-52
2022/01/29 12:50:39;;;;;;;2.70;1.63;;;;;;;;;;5023622;28;20037;-51
2022/01/29 12:53:22;;;;;;;2.25;1.55;;;;;;;;;;5023462;28;20118;-54
2022/01/29 12:56:04;;;;;;;3.10;1.88;;;;;;;;;;5023640;28;20078;-52
2022/01/29 12:58:29;;;;;;;2.10;1.60;;;;;;;;;;5023509;28;20030;-53
2022/01/29 13:01:02;;;;;;;2.78;1.80;;;;;;;;;;5017370;28;20033;-53
2022/01/29 13:03:27;;;;;;;2.65;1.70;;;;;;;;;;5003210;28;20234;-55
2022/01/29 13:05:53;;;;;;;2.97;1.75;;;;;;;;;;5003171;28;20586;-53
2022/01/29 13:08:24;;;;;;;2.75;1.80;;;;;;;;;;5001986;28;20034;-52
2022/01/29 13:10:49;;;;;;;3.05;1.42;;;;;;;;;;5003020;28;20032;-51
2022/01/29 13:13:24;;;;;;;3.13;1.80;;;;;;;;;;5002804;28;20034;-51
2022/01/29 13:15:50;;;;;;;2.58;1.85;;;;;;;;;;5000691;28;20022;-52
2022/01/29 13:18:15;;;;;;;2.90;1.70;;;;;;;;;;5003034;28;20025;-51
2022/01/29 13:20:40;;;;;;;2.30;1.63;;;;;;;;;;5003226;28;20377;-52
2022/01/29 13:23:05;;;;;;;2.97;1.90;;;;;;;;;;5003053;28;20273;-53
2022/01/29 13:25:31;;;;;;;2.50;1.60;;;;;;;;;;5002914;28;20084;-54
2022/01/29 13:28:17;;;;;;;2.47;1.75;;;;;;;;;;5002485;28;20476;-53
2022/01/29 13:30:42;;;;;;;2.35;1.65;;;;;;;;;;5002191;28;20109;-53
2022/01/29 13:33:12;;;;;;;3.28;1.88;;;;;;;;;;5000818;28;20081;-53
2022/01/29 13:35:41;;;;;;;3.33;1.80;;;;;;;;;;4992139;28;20393;-53
2022/01/29 13:38:08;;;;;;;3.40;2.10;;;;;;;;;;4985558;28;20085;-54
2022/01/29 13:40:34;;;;;;;2.08;1.48;;;;;;;;;;4982617;28;20030;-53
2022/01/29 13:43:01;;;;;;;3.15;2.05;;;;;;;;;;4996530;28;20057;-52
2022/01/29 13:45:26;;;;;;;2.42;1.80;;;;;;;;;;5002162;28;20018;-52
2022/01/29 13:48:00;;;;;;;3.40;1.90;;;;;;;;;;5002416;28;20041;-52
2022/01/29 13:50:27;;;;;;;3.13;1.95;;;;;;;;;;5002268;28;20455;-53
2022/01/29 13:52:57;;;;;;;3.30;2.15;;;;;;;;;;5002481;28;20526;-51
2022/01/29 13:55:22;;;;;;;3.08;2.38;;;;;;;;;;5002130;28;20021;-52
2022/01/29 13:58:00;;;;;;;3.83;1.90;;;;;;;;;;5002442;28;20424;-52
2022/01/29 14:00:25;;;;;;;2.80;2.17;;;;;;;;;;4997653;28;20022;-51
2022/01/29 14:02:52;;;;;;;3.13;1.93;;;;;;;;;;4995277;28;20030;-51
2022/01/29 14:05:22;;;;;;;3.20;1.90;;;;;;;;;;5002134;28;20276;-51
2022/01/29 14:07:47;;;;;;;;;;;;;;;;;;5002425;28;20116;-52
2022/01/29 14:10:14;;;;;;;2.90;2.17;;;;;;;;;;5002098;28;20025;-52
2022/01/29 14:12:46;;;;;;;3.00;1.80;;;;;;;;;;5001944;28;20081;-52
2022/01/29 14:15:12;;;;;;;3.47;2.30;;;;;;;;;;5001816;28;20472;-50
2022/01/29 14:17:37;;;;;;;3.17;2.00;;;;;;;;;;5002059;28;20029;-52
2022/01/29 14:20:03;;;;;;;2.60;1.77;;;;;;;;;;5001970;28;20026;-52
2022/01/29 14:22:30;;;;;;;4.35;2.20;;;;;;;;;;5002018;28;20040;-52
2022/01/29 14:24:56;;;;;;;2.85;1.98;;;;;;;;;;5002112;28;20029;-52
2022/01/29 14:27:21;;;;;;;2.78;2.00;;;;;;;;;;5002094;28;20037;-52
2022/01/29 14:29:46;;;;;;;3.90;2.13;;;;;;;;;;5021712;28;20108;-53
2022/01/29 14:32:12;;;;;;;3.10;1.95;;;;;;;;;;5022018;28;20311;-52
2022/01/29 14:34:37;;;;;;;2.67;1.75;;;;;;;;;;5021736;28;20087;-51
2022/01/29 14:37:03;;;;;;;2.72;1.80;;;;;;;;;;5020629;28;20407;-53
2022/01/29 14:39:28;;;;;;;2.70;2.17;;;;;;;;;;5002311;28;20080;-52
2022/01/29 14:41:54;;;;;;;2.97;2.15;;;;;;;;;;4989934;28;20021;-51
2022/01/29 14:44:19;;;;;;;2.65;2.03;;;;;;;;;;4983386;28;20060;-51
2022/01/29 14:46:44;;;;;;;3.30;2.33;;;;;;;;;;4986547;28;20018;-51
2022/01/29 14:49:10;;;;;;;3.50;2.10;;;;;;;;;;4986337;28;20038;-51
2022/01/29 14:51:38;;;;;;;3.80;2.38;;;;;;;;;;4985912;28;20061;-52
2022/01/29 14:54:03;;;;;;;3.35;1.90;;;;;;;;;;4986164;28;20026;-51